Sydney, New South Wales

8:05 PM AEST on August 30, 2016 (GMT +1000)
Mascot | | Change Station

Elev 36 ft 33.93 °S, 151.19 °E | Updated 8 seconds ago

Clear
Clear
65.1 °F
Feels Like 65.1 °F
N
4.0
Wind Variable Wind from ENE
Gusts 4.9 mph

Today
High -- | Low -- °F
--% Chance of Precip.
Yesterday
High -- | Low -- °F
Precip. -- in
Pressure 30.18 in
Visibility 6.2 miles
Clouds
Dew Point 34 °F
Humidity 32%
Rainfall 0.00 in
Snow Depth Not available.
6:16 AM 5:35 PM
Waning Crescent, 4% visible
METAR YSRI 301000Z AUTO 00000KT 9999 // NCD 16/13 Q1022
Pressure 30.18 in
Visibility 6.2 miles
Clouds
Dew Point 34 °F
Humidity 32%
Rainfall 0.00 in
Snow Depth Not available.
6:16 AM 5:35 PM
Waning Crescent, 4% visible
METAR YSRI 301000Z AUTO 00000KT 9999 // NCD 16/13 Q1022

10-Day Weather Forecast

Almanac

Astronomy

Aug. 30, 2016 Rise Set
Actual Time
Civil Twilight
Nautical Twilight
Astronomical Twilight
Moon
Length of Visible Light
Length of Day
Tomorrow will be .
, % of the Moon is Illuminated

Today's Extremes

Country Highs Country Lows

Community

WunderPhotos

Upload Photos

1,935,795 photos uploaded!

WunderBlog® & News

Nearby

Air Quality

  Air Quality AQ Index Pollutant
Not available.

Snow Depth

Station Depth Elevation

Earthquake Activity

City Distance Mag. Time & Date
Minimum magnitude displayed is 2.5.

Coastal Water Temperatures

Place Temperature

Stations

Nearby Weather Stations

Station Location Temp. Windchill Dew Point Humidity Wind Precip. Elev Updated Type